Alligator Point, Florida
Current Conditions -  °F | °C
As of 3:53 AM on Wednesday 26 Nov 2014 (Local Time) from KTLH Reporting Station
Light Rain Light Rain  
Wind Chill: 47°   Ceiling: 8000
Heat Index: 49°   Visibility: 10mi
Dew Point: 45°   Wind: 6mph
Humidity: 86%   Direction: 290°WNW
Pressure: 30.04"   Gusts: NA
Location:  30.0223°N, 84.3911°W
Report Text: KTLH 260853Z AUTO 29005KT 10SM -RA FEW060 BKN080 OVC100 09/07 A3004 RMK AO2 PRESRR SLP172 P0002 60016 T00940072 53006 $
Loading
Personal Weather Stations






























Interactive Weather Map New forecast layout! Learn more

10-Day Weather Forecast

Advertisements
Track Severe Weather on mobile